Time;durP1;ratioP1;P1;durP2;ratioP2;P2;SDS_P1;SDS_P2;PMS_P1;PMS_P2;Temp;Humidity;BMP_temperature;BMP_pressure;BME280_temperature;BME280_humidity;BME280_pressure;Samples;Min_cycle;Max_cycle;Signal;HPM_P1;HPM_P2
2021/06/30 00:00:23;;;;;;;3.92;2.75;;;26.50;59.40;;;;;;4390160;32;20089;-38
2021/06/30 00:02:49;;;;;;;4.90;2.87;;;26.50;59.50;;;;;;4403985;32;20092;-37
2021/06/30 00:05:15;;;;;;;4.10;2.80;;;26.50;59.60;;;;;;4403826;32;20065;-38
2021/06/30 00:07:42;;;;;;;6.40;2.67;;;26.50;59.60;;;;;;4403961;32;20155;-38
2021/06/30 00:10:09;;;;;;;3.10;2.37;;;26.50;59.70;;;;;;4403938;32;20081;-38
2021/06/30 00:12:36;;;;;;;3.97;2.40;;;26.50;59.50;;;;;;4404192;32;20215;-38
2021/06/30 00:15:10;;;;;;;3.33;2.92;;;26.50;59.40;;;;;;4389786;32;20539;-38
2021/06/30 00:17:36;;;;;;;3.75;2.90;;;26.50;59.40;;;;;;4403582;32;20081;-38
2021/06/30 00:20:05;;;;;;;6.07;2.97;;;26.50;59.40;;;;;;4403526;32;20063;-39
2021/06/30 00:22:32;;;;;;;3.40;2.05;;;26.50;59.50;;;;;;4403745;32;20465;-38
2021/06/30 00:24:59;;;;;;;3.42;2.70;;;26.60;59.60;;;;;;4403434;32;20069;-38
2021/06/30 00:27:25;;;;;;;3.28;2.95;;;26.60;59.30;;;;;;4403977;32;21350;-37
2021/06/30 00:29:52;;;;;;;5.43;3.30;;;26.60;59.10;;;;;;4389859;32;20146;-38
2021/06/30 00:32:18;;;;;;;4.57;2.50;;;26.70;58.80;;;;;;4403700;32;20076;-38
2021/06/30 00:34:45;;;;;;;7.53;3.28;;;26.70;58.30;;;;;;4403686;32;20076;-37
2021/06/30 00:37:11;;;;;;;3.87;3.47;;;26.70;58.40;;;;;;4403768;32;20545;-39
2021/06/30 00:39:38;;;;;;;5.78;3.58;;;26.70;58.50;;;;;;4403650;32;20132;-38
2021/06/30 00:42:04;;;;;;;4.28;3.35;;;26.70;58.60;;;;;;4389523;32;20518;-38
2021/06/30 00:44:34;;;;;;;3.58;3.05;;;26.70;58.40;;;;;;4403765;32;20579;-38
2021/06/30 00:47:02;;;;;;;3.20;2.95;;;26.80;58.30;;;;;;4403045;32;20054;-38
2021/06/30 00:49:28;;;;;;;3.70;3.40;;;26.80;58.30;;;;;;4388778;32;20075;-39
2021/06/30 00:51:55;;;;;;;3.70;3.08;;;26.80;58.00;;;;;;4388070;32;20502;-38
2021/06/30 00:54:21;;;;;;;6.20;3.53;;;26.90;58.20;;;;;;4388217;32;20439;-38
2021/06/30 00:56:48;;;;;;;3.83;3.47;;;26.90;58.40;;;;;;4374107;32;20080;-38
2021/06/30 00:59:15;;;;;;;4.47;3.78;;;26.90;58.40;;;;;;4386662;32;20094;-38
2021/06/30 01:01:41;;;;;;;3.95;3.60;;;26.90;58.50;;;;;;4388325;32;20608;-38
2021/06/30 01:04:08;;;;;;;4.75;3.55;;;27.00;58.50;;;;;;4388292;32;20081;-38
2021/06/30 01:06:34;;;;;;;4.87;3.08;;;27.10;58.30;;;;;;4388112;32;20521;-38
2021/06/30 01:09:03;;;;;;;5.90;3.37;;;27.10;58.10;;;;;;4388103;32;20066;-38
2021/06/30 01:11:30;;;;;;;5.95;3.60;;;27.10;58.00;;;;;;4385982;32;20070;-38
2021/06/30 01:13:57;;;;;;;4.68;3.80;;;27.30;57.90;;;;;;4387076;32;20065;-38
2021/06/30 01:16:23;;;;;;;5.03;4.07;;;27.30;57.50;;;;;;4388243;32;20168;-38
2021/06/30 01:18:50;;;;;;;4.62;3.42;;;27.40;57.30;;;;;;4388266;32;20140;-37
2021/06/30 01:21:16;;;;;;;4.43;3.22;;;27.40;57.10;;;;;;4388211;32;20597;-38
2021/06/30 01:23:44;;;;;;;6.72;3.70;;;27.40;56.90;;;;;;4388166;32;20146;-38
2021/06/30 01:26:11;;;;;;;7.10;3.55;;;27.50;57.00;;;;;;4386188;32;20108;-37
2021/06/30 01:28:38;;;;;;;5.70;3.85;;;27.50;56.90;;;;;;4388295;32;20141;-37
2021/06/30 01:31:07;;;;;;;5.78;3.45;;;27.50;56.90;;;;;;4388013;32;20083;-37
2021/06/30 01:33:33;;;;;;;4.25;3.55;;;27.50;56.90;;;;;;4388182;32;20077;-37
2021/06/30 01:36:00;;;;;;;4.78;3.70;;;27.50;56.90;;;;;;4387849;32;20223;-37
2021/06/30 01:38:28;;;;;;;5.80;4.32;;;27.50;56.70;;;;;;4388030;32;20105;-38
2021/06/30 01:40:56;;;;;;;5.25;4.25;;;27.60;56.80;;;;;;4387919;32;20075;-37
2021/06/30 01:43:22;;;;;;;7.15;4.00;;;27.60;56.90;;;;;;4387971;32;20133;-37
2021/06/30 01:45:55;;;;;;;5.12;3.58;;;27.70;56.90;;;;;;4388093;32;20092;-37
2021/06/30 01:48:21;;;;;;;4.28;3.58;;;27.80;56.70;;;;;;4386382;32;20077;-37
2021/06/30 01:50:49;;;;;;;9.18;4.22;;;27.90;56.40;;;;;;4388053;32;20051;-38
2021/06/30 01:53:17;;;;;;;4.60;4.12;;;28.10;56.30;;;;;;4388843;32;20058;-37
2021/06/30 01:55:44;;;;;;;7.28;3.58;;;28.30;56.10;;;;;;4388478;32;20076;-36
2021/06/30 01:58:10;;;;;;;3.67;3.37;;;28.50;55.40;;;;;;4388253;32;20126;-37
2021/06/30 02:00:37;;;;;;;5.00;3.97;;;28.70;55.00;;;;;;4388640;32;20050;-37
2021/06/30 02:03:04;;;;;;;5.10;3.72;;;29.00;54.70;;;;;;4388188;32;20066;-37
2021/06/30 02:05:30;;;;;;;4.12;3.78;;;29.20;53.90;;;;;;4386396;32;20053;-37
2021/06/30 02:07:59;;;;;;;4.53;4.10;;;29.30;53.60;;;;;;4387878;32;20065;-37
2021/06/30 02:10:26;;;;;;;5.03;3.90;;;29.50;53.60;;;;;;4387742;32;20058;-38
2021/06/30 02:12:52;;;;;;;4.75;4.20;;;29.70;53.40;;;;;;4373345;32;20466;-37
2021/06/30 02:15:25;;;;;;;5.47;4.70;;;29.90;52.90;;;;;;4386331;32;20149;-37
2021/06/30 02:17:51;;;;;;;5.03;3.50;;;30.10;52.50;;;;;;4385954;32;20510;-36
2021/06/30 02:20:18;;;;;;;4.47;3.80;;;30.30;51.80;;;;;;4387998;32;20085;-36
2021/06/30 02:22:45;;;;;;;5.18;3.62;;;30.40;51.30;;;;;;4390230;32;20119;-36
2021/06/30 02:25:14;;;;;;;7.78;4.07;;;30.60;51.10;;;;;;4389439;32;20175;-37
2021/06/30 02:27:41;;;;;;;5.55;4.50;;;30.70;50.60;;;;;;4390207;32;20510;-36
2021/06/30 02:30:11;;;;;;;5.00;3.47;;;30.80;50.40;;;;;;4389168;32;20528;-37
2021/06/30 02:32:38;;;;;;;7.72;3.37;;;30.90;50.00;;;;;;4357873;32;20175;-37
2021/06/30 02:35:07;;;;;;;4.65;3.85;;;31.10;49.60;;;;;;4345206;32;20175;-36
2021/06/30 02:37:34;;;;;;;5.90;3.87;;;31.20;49.10;;;;;;4357883;32;20065;-36
2021/06/30 02:40:00;;;;;;;6.07;3.70;;;31.30;48.70;;;;;;4345661;32;20070;-37
2021/06/30 02:42:27;;;;;;;5.60;3.72;;;31.40;48.50;;;;;;4355186;32;20177;-36
2021/06/30 02:44:53;;;;;;;4.18;3.78;;;31.50;48.30;;;;;;4342558;33;20161;-36
2021/06/30 02:47:21;;;;;;;6.10;3.08;;;31.60;48.30;;;;;;4342787;33;20073;-36
2021/06/30 02:49:47;;;;;;;9.63;5.37;;;31.80;48.20;;;;;;4355061;32;20086;-36
2021/06/30 02:52:14;;;;;;;5.03;3.83;;;32.00;47.70;;;;;;4342732;33;20120;-37
2021/06/30 02:54:40;;;;;;;4.47;3.55;;;32.30;46.90;;;;;;4355006;32;20070;-36
2021/06/30 02:57:07;;;;;;;3.95;3.22;;;32.50;46.20;;;;;;4354723;32;20073;-37
2021/06/30 02:59:33;;;;;;;6.32;3.80;;;32.70;45.80;;;;;;4342433;33;20196;-37
2021/06/30 03:02:00;;;;;;;3.42;3.08;;;32.90;44.90;;;;;;4354333;32;20174;-36
2021/06/30 03:04:26;;;;;;;8.73;3.85;;;33.00;44.80;;;;;;4379602;32;20173;-36
2021/06/30 03:06:53;;;;;;;5.05;3.95;;;32.90;44.60;;;;;;4374588;32;20077;-37
2021/06/30 03:09:21;;;;;;;9.05;4.25;;;33.00;44.70;;;;;;4387077;32;20070;-37
2021/06/30 03:11:49;;;;;;;10.45;4.20;;;33.00;44.30;;;;;;4344496;32;20101;-37
2021/06/30 03:14:16;;;;;;;5.45;4.22;;;32.90;44.40;;;;;;4339490;32;20086;-37
2021/06/30 03:16:43;;;;;;;4.60;3.50;;;32.80;44.80;;;;;;4341720;32;20617;-37
2021/06/30 03:19:10;;;;;;;9.00;4.18;;;32.80;45.10;;;;;;4317837;33;20199;-36
2021/06/30 03:21:36;;;;;;;5.87;4.57;;;32.80;44.90;;;;;;4341804;33;20191;-36
2021/06/30 03:24:03;;;;;;;3.83;3.53;;;32.70;44.50;;;;;;4330322;33;20074;-36
2021/06/30 03:26:30;;;;;;;3.78;3.47;;;32.80;44.70;;;;;;4329604;33;20062;-37
2021/06/30 03:29:00;;;;;;;6.37;4.10;;;32.80;44.70;;;;;;4300103;33;20146;-37
2021/06/30 03:31:26;;;;;;;6.55;3.70;;;32.90;44.40;;;;;;4300501;33;20157;-37
2021/06/30 03:33:53;;;;;;;4.40;3.70;;;33.00;44.10;;;;;;4300040;33;20197;-38
2021/06/30 03:36:19;;;;;;;8.38;3.95;;;33.10;44.10;;;;;;4300183;33;20078;-38
2021/06/30 03:38:46;;;;;;;4.57;3.72;;;33.10;44.00;;;;;;4300587;33;20544;-37
2021/06/30 03:41:12;;;;;;;6.82;3.83;;;33.20;44.00;;;;;;4312201;33;20157;-37
2021/06/30 03:43:39;;;;;;;4.50;4.00;;;33.30;43.80;;;;;;4294991;33;20079;-37
2021/06/30 03:46:07;;;;;;;4.68;3.95;;;33.40;43.00;;;;;;4322533;33;20058;-38
2021/06/30 03:48:34;;;;;;;4.65;4.07;;;33.40;43.00;;;;;;4312731;33;20098;-38
2021/06/30 03:51:00;;;;;;;6.95;4.65;;;33.50;42.90;;;;;;4329554;33;20082;-37
2021/06/30 03:53:27;;;;;;;3.80;3.50;;;33.50;42.70;;;;;;4341903;33;20074;-37
2021/06/30 03:55:53;;;;;;;11.75;4.00;;;33.50;42.50;;;;;;4341661;33;20074;-37
2021/06/30 03:58:20;;;;;;;8.05;3.85;;;33.40;42.80;;;;;;4329527;33;20120;-37
2021/06/30 04:00:46;;;;;;;6.93;4.18;;;33.40;43.10;;;;;;4328944;33;20596;-36
2021/06/30 04:03:13;;;;;;;4.43;3.90;;;33.30;43.00;;;;;;4341849;33;20535;-36
2021/06/30 04:05:39;;;;;;;6.68;4.25;;;33.40;42.90;;;;;;4334716;32;20073;-36
2021/06/30 04:08:09;;;;;;;5.45;3.85;;;33.40;42.60;;;;;;4371212;32;20066;-37
2021/06/30 04:10:36;;;;;;;4.70;4.30;;;33.30;42.60;;;;;;4371146;32;20077;-37
2021/06/30 04:13:04;;;;;;;6.20;4.22;;;33.30;42.70;;;;;;4370964;32;20089;-37
2021/06/30 04:15:31;;;;;;;13.15;3.53;;;33.20;42.70;;;;;;4343399;32;20073;-37
2021/06/30 04:18:00;;;;;;;4.32;3.90;;;33.30;42.90;;;;;;4356751;32;20077;-37
2021/06/30 04:20:26;;;;;;;6.62;3.58;;;33.40;42.60;;;;;;4359582;32;20073;-37
2021/06/30 04:22:53;;;;;;;5.47;4.00;;;33.40;43.30;;;;;;4358491;32;20070;-37
2021/06/30 04:25:19;;;;;;;5.70;4.53;;;33.60;43.70;;;;;;4370725;32;20155;-38
2021/06/30 04:27:46;;;;;;;5.65;3.90;;;33.80;43.60;;;;;;4371022;32;20073;-37
2021/06/30 04:30:13;;;;;;;5.45;4.03;;;34.20;42.90;;;;;;4370554;32;20072;-38
2021/06/30 04:32:39;;;;;;;6.05;3.70;;;34.40;42.40;;;;;;4358335;32;20521;-36
2021/06/30 04:35:07;;;;;;;4.55;3.75;;;34.60;41.00;;;;;;4358447;32;20132;-39
2021/06/30 04:37:34;;;;;;;3.83;3.50;;;34.60;40.60;;;;;;4370978;32;20224;-39
2021/06/30 04:40:01;;;;;;;6.18;3.50;;;34.60;40.50;;;;;;4371157;32;20331;-37
2021/06/30 04:42:28;;;;;;;5.40;3.90;;;34.50;40.70;;;;;;4371071;32;20070;-38
2021/06/30 04:44:54;;;;;;;5.05;3.10;;;34.60;40.70;;;;;;4371076;32;20081;-37
2021/06/30 04:47:21;;;;;;;7.65;4.78;;;34.70;40.50;;;;;;4395050;32;20560;-37
2021/06/30 04:49:47;;;;;;;6.30;3.90;;;34.80;40.40;;;;;;4386594;32;20159;-37
2021/06/30 04:52:13;;;;;;;6.20;3.67;;;34.80;40.60;;;;;;4387840;32;20778;-38
2021/06/30 04:54:40;;;;;;;5.70;3.83;;;34.90;40.40;;;;;;4386828;32;20606;-37
2021/06/30 04:57:06;;;;;;;3.42;3.15;;;34.90;40.40;;;;;;4387978;32;20068;-37
2021/06/30 04:59:33;;;;;;;7.65;4.87;;;35.00;40.30;;;;;;4388063;32;20062;-37
2021/06/30 05:01:59;;;;;;;4.43;4.10;;;35.10;40.90;;;;;;4388592;32;20100;-37
2021/06/30 05:04:26;;;;;;;6.82;4.82;;;35.30;40.80;;;;;;4358352;32;20201;-37
2021/06/30 05:06:52;;;;;;;7.62;4.70;;;35.30;40.80;;;;;;4370082;32;20062;-37
2021/06/30 05:09:19;;;;;;;7.35;4.55;;;35.20;40.70;;;;;;4370397;32;20078;-38
2021/06/30 05:11:45;;;;;;;4.30;3.90;;;35.20;41.40;;;;;;4370026;32;20180;-37
2021/06/30 05:14:12;;;;;;;4.80;4.47;;;35.10;41.10;;;;;;4370214;32;20223;-38
2021/06/30 05:16:38;;;;;;;4.62;4.28;;;35.20;41.10;;;;;;4370728;32;20148;-37
2021/06/30 05:19:05;;;;;;;8.40;3.85;;;35.40;42.10;;;;;;4370012;32;20074;-38
2021/06/30 05:21:32;;;;;;;4.47;3.97;;;35.80;41.20;;;;;;4370480;32;20195;-37
2021/06/30 05:23:58;;;;;;;4.95;4.00;;;36.20;40.40;;;;;;4358063;32;20061;-38
2021/06/30 05:26:25;;;;;;;4.00;3.70;;;36.70;39.60;;;;;;4370107;32;20078;-39
2021/06/30 05:28:51;;;;;;;4.78;4.37;;;37.10;38.80;;;;;;4370296;32;20145;-37
2021/06/30 05:31:17;;;;;;;4.53;4.15;;;37.40;38.10;;;;;;4370178;32;20188;-38
2021/06/30 05:33:44;;;;;;;5.87;3.97;;;37.50;37.90;;;;;;4370094;32;20191;-39
2021/06/30 05:36:10;;;;;;;4.28;3.97;;;37.70;37.70;;;;;;4379943;32;20100;-39
2021/06/30 05:38:37;;;;;;;5.35;3.80;;;37.80;37.30;;;;;;4387859;32;20050;-38
2021/06/30 05:41:03;;;;;;;3.70;3.40;;;37.90;36.80;;;;;;4387415;32;20077;-38
2021/06/30 05:43:30;;;;;;;4.03;3.15;;;38.20;36.40;;;;;;4386604;32;20151;-38
2021/06/30 05:45:56;;;;;;;4.25;3.83;;;38.30;35.80;;;;;;4357329;32;20082;-38
2021/06/30 05:48:23;;;;;;;3.47;3.25;;;38.30;35.60;;;;;;4357640;32;20260;-39
2021/06/30 05:50:49;;;;;;;4.78;3.75;;;38.20;35.90;;;;;;4357795;32;20140;-38
2021/06/30 05:53:16;;;;;;;6.80;5.10;;;38.20;36.20;;;;;;4345495;32;20098;-39
2021/06/30 05:55:43;;;;;;;4.15;3.75;;;38.20;36.10;;;;;;4370484;32;20074;-38
2021/06/30 05:58:09;;;;;;;4.32;3.75;;;38.40;36.00;;;;;;4360989;32;20081;-38
2021/06/30 06:00:36;;;;;;;3.83;3.53;;;38.60;35.80;;;;;;4373232;32;20494;-37
2021/06/30 06:03:02;;;;;;;4.20;3.75;;;39.00;35.30;;;;;;4373518;32;20062;-40
2021/06/30 06:05:29;;;;;;;5.57;4.15;;;39.20;34.40;;;;;;4372509;32;20059;-41
2021/06/30 06:07:55;;;;;;;4.50;4.07;;;39.20;34.80;;;;;;4372649;32;20070;-40
2021/06/30 06:10:22;;;;;;;4.57;3.65;;;39.10;34.50;;;;;;4372631;32;20097;-39
2021/06/30 06:12:48;;;;;;;5.18;3.87;;;39.00;34.40;;;;;;4372813;32;20058;-43
2021/06/30 06:15:15;;;;;;;6.62;3.40;;;38.70;35.20;;;;;;4372710;32;20525;-38
2021/06/30 06:17:41;;;;;;;6.43;3.97;;;38.70;34.50;;;;;;4372718;32;20074;-38
2021/06/30 06:20:09;;;;;;;4.55;4.12;;;38.40;34.80;;;;;;4360332;32;20085;-37
2021/06/30 06:22:36;;;;;;;5.95;3.78;;;38.30;35.00;;;;;;4378196;32;20061;-38
2021/06/30 06:25:04;;;;;;;5.30;4.80;;;38.20;35.30;;;;;;4405368;32;20518;-39
2021/06/30 06:27:31;;;;;;;4.10;3.80;;;38.20;35.60;;;;;;4391856;32;20060;-39
2021/06/30 06:29:58;;;;;;;5.25;3.62;;;38.20;34.90;;;;;;4405568;32;20061;-38
2021/06/30 06:32:24;;;;;;;7.18;3.80;;;38.10;35.30;;;;;;4390865;32;20066;-39
2021/06/30 06:34:51;;;;;;;4.32;3.47;;;37.90;35.60;;;;;;4405159;32;20046;-39
2021/06/30 06:37:18;;;;;;;5.47;3.85;;;37.80;36.50;;;;;;4405237;32;20571;-38
2021/06/30 06:39:45;;;;;;;7.47;4.68;;;37.80;36.60;;;;;;4404944;32;20096;-39
2021/06/30 06:42:12;;;;;;;5.72;4.00;;;37.70;36.20;;;;;;4390978;32;20054;-38
2021/06/30 06:44:40;;;;;;;4.03;3.72;;;37.70;36.20;;;;;;4405046;32;20072;-37
2021/06/30 06:47:07;;;;;;;8.18;3.83;;;37.70;36.10;;;;;;4389376;32;20516;-37
2021/06/30 06:49:33;;;;;;;5.20;3.80;;;37.80;35.90;;;;;;4388683;32;20065;-39
2021/06/30 06:52:01;;;;;;;4.53;3.72;;;37.90;35.80;;;;;;4388070;32;20182;-39
2021/06/30 06:54:28;;;;;;;4.20;3.42;;;37.90;35.80;;;;;;4388354;32;20104;-38
2021/06/30 06:56:54;;;;;;;6.03;3.47;;;37.90;35.70;;;;;;4389985;32;20077;-40
2021/06/30 06:59:21;;;;;;;9.10;3.70;;;38.00;35.40;;;;;;4389816;32;20551;-40
2021/06/30 07:01:47;;;;;;;9.73;4.03;;;38.10;35.40;;;;;;4388307;32;20505;-38
2021/06/30 07:04:14;;;;;;;6.35;3.37;;;38.10;35.20;;;;;;4388368;32;20089;-38
2021/06/30 07:06:40;;;;;;;8.52;3.10;;;38.20;35.60;;;;;;4388108;32;20069;-39
2021/06/30 07:09:07;;;;;;;5.68;4.03;;;38.30;35.50;;;;;;4387328;32;20071;-39
2021/06/30 07:11:34;;;;;;;3.65;3.33;;;38.40;35.00;;;;;;4389556;32;20077;-39
2021/06/30 07:14:00;;;;;;;3.87;3.35;;;38.60;35.20;;;;;;4389450;32;20455;-38
2021/06/30 07:16:27;;;;;;;5.28;3.47;;;38.60;35.30;;;;;;4389921;32;20065;-39
2021/06/30 07:18:53;;;;;;;7.85;3.65;;;38.80;34.80;;;;;;4389350;32;20070;-38
2021/06/30 07:21:19;;;;;;;4.82;3.40;;;39.10;34.80;;;;;;4389517;32;20075;-39
2021/06/30 07:23:46;;;;;;;3.12;2.83;;;39.40;34.30;;;;;;4387789;32;20153;-39
2021/06/30 07:26:13;;;;;;;6.68;3.22;;;39.80;34.00;;;;;;4389178;32;20058;-39
2021/06/30 07:28:39;;;;;;;4.50;4.20;;;40.00;33.50;;;;;;4387664;32;20133;-39
2021/06/30 07:31:07;;;;;;;5.40;3.47;;;40.10;33.30;;;;;;4389380;32;20073;-39
2021/06/30 07:33:37;;;;;;;5.75;3.90;;;40.10;33.50;;;;;;4389596;32;20078;-38
2021/06/30 07:36:04;;;;;;;10.70;4.70;;;40.10;33.10;;;;;;4375376;32;20475;-40
2021/06/30 07:38:30;;;;;;;3.97;3.35;;;40.30;32.60;;;;;;4388908;32;20164;-38
2021/06/30 07:40:57;;;;;;;7.10;3.55;;;40.40;33.00;;;;;;4387538;32;20070;-39
2021/06/30 07:43:23;;;;;;;4.00;3.60;;;40.60;32.40;;;;;;4388991;32;20561;-40
2021/06/30 07:45:50;;;;;;;6.62;3.40;;;40.60;32.70;;;;;;4389202;32;20615;-39
2021/06/30 07:48:16;;;;;;;7.68;4.10;;;40.70;32.90;;;;;;4397836;32;20592;-39
2021/06/30 07:50:43;;;;;;;7.15;3.58;;;40.90;32.40;;;;;;4404214;32;20081;-39
2021/06/30 07:53:09;;;;;;;4.15;3.75;;;41.10;32.30;;;;;;4371086;32;20129;-39
2021/06/30 07:55:36;;;;;;;5.10;3.42;;;41.40;31.80;;;;;;4371712;32;20067;-38
2021/06/30 07:58:02;;;;;;;3.20;2.75;;;41.50;31.40;;;;;;4371403;32;20557;-39
2021/06/30 08:00:29;;;;;;;7.78;3.70;;;41.50;31.60;;;;;;4371507;32;20054;-38
2021/06/30 08:02:55;;;;;;;4.37;2.83;;;41.70;30.70;;;;;;4371626;32;20092;-39
2021/06/30 08:05:22;;;;;;;7.70;3.00;;;41.70;30.30;;;;;;4371130;32;20062;-39
2021/06/30 08:07:48;;;;;;;3.10;1.83;;;41.70;30.20;;;;;;4371082;32;20301;-40
2021/06/30 08:10:15;;;;;;;4.35;2.15;;;41.60;29.40;;;;;;4371129;32;20521;-39
2021/06/30 08:12:41;;;;;;;4.03;1.80;;;41.40;29.60;;;;;;4371492;32;20161;-39
2021/06/30 08:15:09;;;;;;;4.95;1.85;;;41.40;29.00;;;;;;4359262;32;20178;-39
2021/06/30 08:17:36;;;;;;;8.85;2.40;;;41.20;29.00;;;;;;4355552;32;20089;-40
2021/06/30 08:20:03;;;;;;;3.83;1.40;;;41.00;28.80;;;;;;4355719;32;20599;-38
2021/06/30 08:22:30;;;;;;;3.12;1.90;;;41.10;28.70;;;;;;4355854;32;20656;-39
2021/06/30 08:24:57;;;;;;;4.47;1.60;;;41.30;28.70;;;;;;4356047;32;20538;-38
2021/06/30 08:27:23;;;;;;;3.87;1.85;;;41.60;28.60;;;;;;4370770;32;20210;-39
2021/06/30 08:29:50;;;;;;;1.87;1.77;;;41.60;28.80;;;;;;4371012;32;20670;-39
2021/06/30 08:32:16;;;;;;;2.12;1.73;;;41.60;28.70;;;;;;4370769;32;20081;-38
2021/06/30 08:34:43;;;;;;;5.43;1.70;;;41.70;28.70;;;;;;4370978;32;20077;-39
2021/06/30 08:37:10;;;;;;;4.95;1.60;;;41.70;28.20;;;;;;4358920;32;20507;-39
2021/06/30 08:39:37;;;;;;;3.05;1.62;;;41.70;28.50;;;;;;4370815;32;20066;-40
2021/06/30 08:42:04;;;;;;;4.05;1.55;;;41.60;28.50;;;;;;4370648;32;20117;-38
2021/06/30 08:44:30;;;;;;;5.25;1.90;;;41.50;28.50;;;;;;4358638;32;20625;-39
2021/06/30 08:46:57;;;;;;;3.25;1.27;;;41.40;28.70;;;;;;4370708;32;20066;-40
2021/06/30 08:49:26;;;;;;;1.80;1.55;;;41.40;28.40;;;;;;4383237;32;20069;-40
2021/06/30 08:51:54;;;;;;;3.28;1.80;;;41.60;28.20;;;;;;4374666;32;20077;-40
2021/06/30 08:54:21;;;;;;;6.85;1.62;;;41.80;28.00;;;;;;4388233;32;20054;-40
2021/06/30 08:56:48;;;;;;;3.28;1.30;;;42.40;28.80;;;;;;4374421;32;20116;-39
2021/06/30 08:59:15;;;;;;;3.75;1.67;;;42.60;27.30;;;;;;4387889;32;20178;-39
2021/06/30 09:01:43;;;;;;;4.53;1.67;;;42.60;27.10;;;;;;4374076;32;20093;-39
2021/06/30 09:04:12;;;;;;;2.35;2.00;;;42.50;27.30;;;;;;4388804;32;20536;-38
2021/06/30 09:06:39;;;;;;;5.07;1.87;;;42.30;27.50;;;;;;4388329;32;20077;-39
2021/06/30 09:09:13;;;;;;;5.35;1.73;;;42.10;27.70;;;;;;4387861;32;20081;-38
2021/06/30 09:11:42;;;;;;;1.83;1.73;;;42.10;27.90;;;;;;4388053;32;20066;-38
2021/06/30 09:14:45;;;;;;;2.05;1.25;;;42.20;28.00;;;;;;4387683;32;20077;-39
2021/06/30 09:17:21;;;;;;;5.95;1.60;;;42.30;27.90;;;;;;4376843;32;20073;-39
2021/06/30 09:20:06;;;;;;;3.55;2.28;;;42.70;27.40;;;;;;4374985;32;20054;-39
2021/06/30 09:22:51;;;;;;;2.20;1.52;;;43.00;27.40;;;;;;4387742;32;20080;-38
2021/06/30 09:25:26;;;;;;;3.05;1.40;;;43.10;27.10;;;;;;4387424;32;20136;-39
2021/06/30 09:27:53;;;;;;;2.72;1.52;;;43.00;27.10;;;;;;4387799;32;20148;-38
2021/06/30 09:30:20;;;;;;;3.28;1.45;;;42.80;27.20;;;;;;4387037;32;20176;-39
2021/06/30 09:33:03;;;;;;;1.98;1.20;;;42.60;27.30;;;;;;4387792;32;20069;-38
2021/06/30 09:35:32;;;;;;;;;;;42.40;27.50;;;;;;4374279;32;20082;-39
2021/06/30 09:38:00;;;;;;;1.92;1.80;;;42.10;27.60;;;;;;4387369;32;19963;-38
2021/06/30 09:40:43;;;;;;;2.55;1.87;;;41.90;27.80;;;;;;4373737;32;20077;-39
2021/06/30 09:43:27;;;;;;;;;;;41.70;28.20;;;;;;4387838;32;20054;-38
2021/06/30 09:45:55;;;;;;;2.12;1.70;;;41.40;28.10;;;;;;4373930;32;20433;-38
2021/06/30 09:48:33;;;;;;;3.37;1.55;;;41.20;28.20;;;;;;4396969;32;20478;-38
2021/06/30 09:51:03;;;;;;;2.25;2.03;;;40.90;28.60;;;;;;4402590;32;20157;-39
2021/06/30 09:53:42;;;;;;;3.20;1.67;;;40.50;29.30;;;;;;4388388;32;20073;-40
2021/06/30 09:56:10;;;;;;;6.95;2.20;;;40.30;29.10;;;;;;4402402;32;20053;-39
2021/06/30 09:58:36;;;;;;;5.45;2.10;;;40.00;29.40;;;;;;4388712;32;20502;-39
2021/06/30 10:01:19;;;;;;;5.37;2.35;;;39.70;29.80;;;;;;4402580;32;20092;-39
2021/06/30 10:03:46;;;;;;;2.53;2.15;;;39.50;30.30;;;;;;4402610;32;20157;-39
2021/06/30 10:06:27;;;;;;;1.80;1.48;;;39.30;30.70;;;;;;4402528;32;20168;-39
2021/06/30 10:08:55;;;;;;;2.85;1.80;;;39.00;32.10;;;;;;4402892;32;20509;-38
2021/06/30 10:11:22;;;;;;;8.55;2.72;;;38.80;32.40;;;;;;4402246;32;20481;-39
2021/06/30 10:13:49;;;;;;;2.83;2.00;;;38.50;33.20;;;;;;4388551;32;20078;-37
2021/06/30 10:16:20;;;;;;;4.30;2.53;;;38.40;33.60;;;;;;4402695;32;20079;-38
2021/06/30 10:18:51;;;;;;;3.83;2.20;;;38.30;33.80;;;;;;4402711;32;20062;-41
2021/06/30 10:21:19;;;;;;;7.85;2.42;;;38.10;34.00;;;;;;4402585;32;20077;-39
2021/06/30 10:23:46;;;;;;;6.40;2.28;;;37.90;34.60;;;;;;4375639;32;20607;-39
2021/06/30 10:26:15;;;;;;;4.10;1.50;;;37.70;34.80;;;;;;4342286;32;20250;-39
2021/06/30 10:28:42;;;;;;;1.73;1.15;;;37.40;33.90;;;;;;4354945;32;20046;-39
2021/06/30 10:31:09;;;;;;;3.75;1.40;;;37.30;33.10;;;;;;4342539;32;20183;-38
2021/06/30 10:33:40;;;;;;;2.80;1.30;;;37.20;33.30;;;;;;4354532;32;20116;-38
2021/06/30 10:36:08;;;;;;;3.25;1.40;;;37.10;33.70;;;;;;4354644;32;20077;-38
2021/06/30 10:38:55;;;;;;;3.00;1.40;;;37.00;35.00;;;;;;4342434;32;20560;-39
2021/06/30 10:41:57;;;;;;;4.75;1.23;;;36.90;34.40;;;;;;4342329;32;20066;-38
2021/06/30 10:44:26;;;;;;;2.95;1.60;;;36.80;34.50;;;;;;4357534;32;20074;-39
2021/06/30 10:46:53;;;;;;;2.92;1.37;;;36.70;35.00;;;;;;4357458;32;20577;-38
2021/06/30 10:49:31;;;;;;;4.78;1.92;;;36.60;35.60;;;;;;4342513;33;20074;-38
2021/06/30 10:52:02;;;;;;;7.78;2.08;;;36.60;35.50;;;;;;4342757;33;20059;-39
2021/06/30 10:54:45;;;;;;;3.50;1.65;;;36.60;36.10;;;;;;4342555;33;20158;-38
2021/06/30 10:57:28;;;;;;;3.72;1.95;;;36.60;36.10;;;;;;4342570;33;20055;-38
2021/06/30 11:00:08;;;;;;;9.55;2.15;;;36.60;35.70;;;;;;4342366;33;20100;-38
2021/06/30 11:02:35;;;;;;;6.68;1.50;;;36.60;36.00;;;;;;4344558;32;20124;-38
2021/06/30 11:05:14;;;;;;;2.50;1.30;;;36.70;35.70;;;;;;4389503;32;20074;-38
2021/06/30 11:07:44;;;;;;;1.55;1.00;;;36.90;35.30;;;;;;4389706;32;20091;-38
2021/06/30 11:10:16;;;;;;;1.83;1.02;;;37.10;34.00;;;;;;4388977;32;20109;-38
2021/06/30 11:12:55;;;;;;;3.85;1.20;;;37.40;33.70;;;;;;4389658;32;20461;-38
2021/06/30 11:15:37;;;;;;;3.87;1.35;;;37.60;33.10;;;;;;4389196;32;20120;-37
2021/06/30 11:18:13;;;;;;;2.10;1.10;;;37.90;32.70;;;;;;4389137;32;20069;-38
2021/06/30 11:20:49;;;;;;;5.18;1.35;;;38.10;32.30;;;;;;4389370;32;20076;-38
2021/06/30 11:23:24;;;;;;;3.70;1.10;;;38.40;31.80;;;;;;4389327;32;20077;-38
2021/06/30 11:25:54;;;;;;;2.60;1.23;;;38.70;31.50;;;;;;4356530;32;20091;-38
2021/06/30 11:28:34;;;;;;;31.02;28.25;;;38.80;31.20;;;;;;4357254;32;20623;-39
2021/06/30 11:31:26;;;;;;;2.28;1.20;;;39.00;30.80;;;;;;4356966;32;20073;-38
2021/06/30 11:34:13;;;;;;;2.00;1.02;;;39.30;30.30;;;;;;4347088;32;20170;-38
2021/06/30 11:36:41;;;;;;;3.22;1.50;;;39.60;30.10;;;;;;4356569;32;20078;-40
2021/06/30 11:39:13;;;;;;;4.00;2.15;;;39.60;30.40;;;;;;4357038;32;20082;-38
2021/06/30 11:41:47;;;;;;;3.12;1.50;;;39.70;29.20;;;;;;4356478;32;20072;-37
2021/06/30 11:44:19;;;;;;;4.45;1.65;;;39.70;29.40;;;;;;4356430;32;20120;-38
2021/06/30 11:46:48;;;;;;;5.22;2.35;;;39.80;29.70;;;;;;4356494;32;20204;-38
2021/06/30 11:49:19;;;;;;;6.53;1.73;;;39.80;29.80;;;;;;4370945;32;20123;-38
2021/06/30 11:52:05;;;;;;;4.15;1.70;;;39.90;30.10;;;;;;4371424;32;20234;-38
2021/06/30 11:54:32;;;;;;;1.95;1.70;;;40.10;30.30;;;;;;4371300;32;20101;-38
2021/06/30 11:56:58;;;;;;;3.92;2.25;;;40.10;30.60;;;;;;4359470;32;20173;-38
2021/06/30 11:59:27;;;;;;;2.12;1.65;;;40.20;30.80;;;;;;4346540;32;20447;-37
2021/06/30 12:01:54;;;;;;;3.50;2.30;;;40.30;31.10;;;;;;4371763;32;20206;-39
2021/06/30 12:04:24;;;;;;;3.45;1.80;;;40.10;31.30;;;;;;4388834;32;20081;-39
2021/06/30 12:07:02;;;;;;;2.05;1.40;;;39.90;31.90;;;;;;4404035;32;20152;-39
2021/06/30 12:09:30;;;;;;;2.60;2.05;;;39.70;32.60;;;;;;4390017;32;20164;-38
2021/06/30 12:12:02;;;;;;;6.47;1.95;;;39.50;33.00;;;;;;4403576;32;20137;-37
2021/06/30 12:14:31;;;;;;;5.12;2.03;;;39.20;33.40;;;;;;4370991;32;20081;-39
2021/06/30 12:17:05;;;;;;;5.80;2.03;;;39.10;33.90;;;;;;4370998;32;20074;-39
2021/06/30 12:19:42;;;;;;;5.50;1.83;;;38.90;34.40;;;;;;4371412;32;20186;-37
2021/06/30 12:22:28;;;;;;;2.15;1.70;;;38.80;35.00;;;;;;4371327;32;20066;-38
2021/06/30 12:24:57;;;;;;;2.05;1.60;;;38.60;35.60;;;;;;4371251;32;20170;-37
2021/06/30 12:27:32;;;;;;;6.75;1.85;;;38.50;36.00;;;;;;4371122;32;20059;-38
2021/06/30 12:30:07;;;;;;;4.32;1.30;;;38.20;36.50;;;;;;4370840;32;20082;-40
2021/06/30 12:32:35;;;;;;;1.80;1.55;;;37.90;36.40;;;;;;4370879;32;20058;-39
2021/06/30 12:35:05;;;;;;;1.92;0.93;;;37.60;36.40;;;;;;4370904;32;20081;-39
2021/06/30 12:37:32;;;;;;;2.67;1.70;;;37.30;36.60;;;;;;4370718;32;20063;-39
2021/06/30 12:40:03;;;;;;;6.15;2.00;;;36.90;37.70;;;;;;4358059;32;20544;-39
2021/06/30 12:43:03;;;;;;;3.55;2.17;;;36.50;38.60;;;;;;4370804;32;20058;-39
2021/06/30 12:45:50;;;;;;;3.72;2.15;;;36.10;39.00;;;;;;4387206;32;20581;-39
2021/06/30 12:48:22;;;;;;;2.80;2.60;;;35.70;39.50;;;;;;4394651;32;20090;-38
2021/06/30 12:50:56;;;;;;;3.15;1.90;;;35.20;39.90;;;;;;4386524;32;20148;-38
2021/06/30 12:53:36;;;;;;;5.37;3.25;;;34.90;40.80;;;;;;4388328;32;20061;-38
2021/06/30 12:56:07;;;;;;;5.62;2.17;;;34.50;41.60;;;;;;4388043;32;20530;-38